sensor_id;sensor_type;location;lat;lon;timestamp;temperature;humidity
19646;DHT22;9971;52.446;13.452;2022-11-15T00:12:21;7.00;99.90
19646;DHT22;9971;52.446;13.452;2022-11-15T00:17:24;11.00;99.90
19646;DHT22;9971;52.446;13.452;2022-11-15T00:22:31;9.20;99.90
19646;DHT22;9971;52.446;13.452;2022-11-15T00:27:29;8.30;99.90
19646;DHT22;9971;52.446;13.452;2022-11-15T00:32:31;7.80;99.90
19646;DHT22;9971;52.446;13.452;2022-11-15T01:02:34;7.50;99.90
19646;DHT22;9971;52.446;13.452;2022-11-15T01:07:37;10.80;99.90
19646;DHT22;9971;52.446;13.452;2022-11-15T01:12:39;9.20;99.90
19646;DHT22;9971;52.446;13.452;2022-11-15T01:17:42;8.30;99.90
19646;DHT22;9971;52.446;13.452;2022-11-15T01:22:44;7.70;99.90
19646;DHT22;9971;52.446;13.452;2022-11-15T01:27:47;7.20;99.90
19646;DHT22;9971;52.446;13.452;2022-11-15T01:32:49;7.00;99.90
19646;DHT22;9971;52.446;13.452;2022-11-15T01:37:52;6.80;99.90
19646;DHT22;9971;52.446;13.452;2022-11-15T02:07:55;6.70;99.90
19646;DHT22;9971;52.446;13.452;2022-11-15T02:12:57;9.90;99.90
19646;DHT22;9971;52.446;13.452;2022-11-15T02:18:10;8.20;99.90
19646;DHT22;9971;52.446;13.452;2022-11-15T02:23:25;7.20;99.90
19646;DHT22;9971;52.446;13.452;2022-11-15T02:28:27;6.80;99.90
19646;DHT22;9971;52.446;13.452;2022-11-15T02:58:37;6.50;99.90
19646;DHT22;9971;52.446;13.452;2022-11-15T03:09:03;8.00;99.90
19646;DHT22;9971;52.446;13.452;2022-11-15T03:14:18;7.00;99.90
19646;DHT22;9971;52.446;13.452;2022-11-15T03:44:24;6.60;99.90
19646;DHT22;9971;52.446;13.452;2022-11-15T03:49:26;9.90;99.90
19646;DHT22;9971;52.446;13.452;2022-11-15T03:54:26;8.40;99.90
19646;DHT22;9971;52.446;13.452;2022-11-15T04:24:29;7.20;99.90
19646;DHT22;9971;52.446;13.452;2022-11-15T04:29:31;10.20;99.90
19646;DHT22;9971;52.446;13.452;2022-11-15T04:59:36;8.50;99.90
19646;DHT22;9971;52.446;13.452;2022-11-15T05:04:39;10.90;99.90
19646;DHT22;9971;52.446;13.452;2022-11-15T05:09:41;9.00;99.90
19646;DHT22;9971;52.446;13.452;2022-11-15T05:39:44;7.80;99.90
19646;DHT22;9971;52.446;13.452;2022-11-15T05:44:47;10.60;99.90
19646;DHT22;9971;52.446;13.452;2022-11-15T05:49:48;8.50;99.90
19646;DHT22;9971;52.446;13.452;2022-11-15T06:19:50;7.30;99.90
19646;DHT22;9971;52.446;13.452;2022-11-15T06:24:53;10.20;99.90
19646;DHT22;9971;52.446;13.452;2022-11-15T06:54:56;8.60;99.90
19646;DHT22;9971;52.446;13.452;2022-11-15T06:59:58;10.90;99.90
19646;DHT22;9971;52.446;13.452;2022-11-15T07:30:01;9.20;99.90
19646;DHT22;9971;52.446;13.452;2022-11-15T07:35:04;11.40;99.90
19646;DHT22;9971;52.446;13.452;2022-11-15T08:05:07;9.80;99.90
19646;DHT22;9971;52.446;13.452;2022-11-15T08:10:09;11.80;99.90
19646;DHT22;9971;52.446;13.452;2022-11-15T08:40:12;10.30;99.90
19646;DHT22;9971;52.446;13.452;2022-11-15T08:45:15;12.20;99.90
19646;DHT22;9971;52.446;13.452;2022-11-15T09:15:17;10.70;99.90
19646;DHT22;9971;52.446;13.452;2022-11-15T09:20:20;12.50;99.90
19646;DHT22;9971;52.446;13.452;2022-11-15T09:25:22;11.30;99.90
19646;DHT22;9971;52.446;13.452;2022-11-15T09:30:25;10.80;99.90
19646;DHT22;9971;52.446;13.452;2022-11-15T09:35:27;10.60;99.90
19646;DHT22;9971;52.446;13.452;2022-11-15T09:40:30;10.60;99.90
19646;DHT22;9971;52.446;13.452;2022-11-15T09:45:38;10.60;99.90
19646;DHT22;9971;52.446;13.452;2022-11-15T09:50:47;10.80;99.90
19646;DHT22;9971;52.446;13.452;2022-11-15T09:55:47;11.00;99.90
19646;DHT22;9971;52.446;13.452;2022-11-15T10:00:47;11.10;99.90
19646;DHT22;9971;52.446;13.452;2022-11-15T10:05:49;11.20;99.90
19646;DHT22;9971;52.446;13.452;2022-11-15T10:10:53;11.40;99.90
19646;DHT22;9971;52.446;13.452;2022-11-15T10:15:54;11.70;99.90
19646;DHT22;9971;52.446;13.452;2022-11-15T10:20:59;11.80;99.90
19646;DHT22;9971;52.446;13.452;2022-11-15T10:26:00;12.10;99.90
19646;DHT22;9971;52.446;13.452;2022-11-15T10:31:03;12.40;99.90
19646;DHT22;9971;52.446;13.452;2022-11-15T10:36:19;12.50;99.90
19646;DHT22;9971;52.446;13.452;2022-11-15T10:41:35;12.70;99.90
19646;DHT22;9971;52.446;13.452;2022-11-15T10:46:38;12.90;99.90
19646;DHT22;9971;52.446;13.452;2022-11-15T10:51:48;13.00;99.90
19646;DHT22;9971;52.446;13.452;2022-11-15T10:56:51;13.20;99.90
19646;DHT22;9971;52.446;13.452;2022-11-15T11:01:53;13.40;99.90
19646;DHT22;9971;52.446;13.452;2022-11-15T11:06:57;13.70;99.90
19646;DHT22;9971;52.446;13.452;2022-11-15T11:11:58;13.90;99.90
19646;DHT22;9971;52.446;13.452;2022-11-15T11:17:34;14.00;99.90
19646;DHT22;9971;52.446;13.452;2022-11-15T11:22:57;14.20;99.90
19646;DHT22;9971;52.446;13.452;2022-11-15T11:33:33;14.70;99.90
19646;DHT22;9971;52.446;13.452;2022-11-15T11:38:42;14.90;99.90
19646;DHT22;9971;52.446;13.452;2022-11-15T11:43:51;15.10;99.90
19646;DHT22;9971;52.446;13.452;2022-11-15T11:49:08;15.20;99.90
19646;DHT22;9971;52.446;13.452;2022-11-15T11:59:32;15.50;99.90
19646;DHT22;9971;52.446;13.452;2022-11-15T12:04:35;15.70;99.90
19646;DHT22;9971;52.446;13.452;2022-11-15T12:09:44;15.90;99.90
19646;DHT22;9971;52.446;13.452;2022-11-15T12:14:48;16.00;99.90
19646;DHT22;9971;52.446;13.452;2022-11-15T12:19:48;16.10;99.90
19646;DHT22;9971;52.446;13.452;2022-11-15T12:24:55;16.30;99.90
19646;DHT22;9971;52.446;13.452;2022-11-15T12:29:54;16.30;99.90
19646;DHT22;9971;52.446;13.452;2022-11-15T12:34:55;16.30;99.90
19646;DHT22;9971;52.446;13.452;2022-11-15T12:40:13;16.60;99.90
19646;DHT22;9971;52.446;13.452;2022-11-15T12:45:23;16.70;99.90
19646;DHT22;9971;52.446;13.452;2022-11-15T12:50:12;16.80;99.90
19646;DHT22;9971;52.446;13.452;2022-11-15T12:55:28;17.20;99.90
19646;DHT22;9971;52.446;13.452;2022-11-15T13:00:36;17.10;99.90
19646;DHT22;9971;52.446;13.452;2022-11-15T13:05:52;17.20;99.90
19646;DHT22;9971;52.446;13.452;2022-11-15T13:10:52;17.20;99.90
19646;DHT22;9971;52.446;13.452;2022-11-15T13:15:56;17.40;99.90
19646;DHT22;9971;52.446;13.452;2022-11-15T13:20:57;17.50;99.90
19646;DHT22;9971;52.446;13.452;2022-11-15T13:26:06;17.30;99.90
19646;DHT22;9971;52.446;13.452;2022-11-15T13:31:23;17.30;99.90
19646;DHT22;9971;52.446;13.452;2022-11-15T13:36:24;17.20;99.90
19646;DHT22;9971;52.446;13.452;2022-11-15T13:41:27;17.10;99.90
19646;DHT22;9971;52.446;13.452;2022-11-15T13:46:29;17.20;99.90
19646;DHT22;9971;52.446;13.452;2022-11-15T13:51:34;17.10;99.90
19646;DHT22;9971;52.446;13.452;2022-11-15T13:56:33;17.10;99.90
19646;DHT22;9971;52.446;13.452;2022-11-15T14:01:36;17.10;99.90
19646;DHT22;9971;52.446;13.452;2022-11-15T14:06:43;16.90;99.90
19646;DHT22;9971;52.446;13.452;2022-11-15T14:11:50;16.90;99.90
19646;DHT22;9971;52.446;13.452;2022-11-15T14:16:52;16.70;99.90
19646;DHT22;9971;52.446;13.452;2022-11-15T14:32:48;16.10;99.90
19646;DHT22;9971;52.446;13.452;2022-11-15T14:37:49;15.70;99.90
19646;DHT22;9971;52.446;13.452;2022-11-15T14:42:52;15.40;99.90
19646;DHT22;9971;52.446;13.452;2022-11-15T14:47:54;15.10;99.90
19646;DHT22;9971;52.446;13.452;2022-11-15T14:52:57;14.90;99.90
19646;DHT22;9971;52.446;13.452;2022-11-15T14:58:00;14.80;99.90
19646;DHT22;9971;52.446;13.452;2022-11-15T15:03:02;14.50;99.90
19646;DHT22;9971;52.446;13.452;2022-11-15T15:08:04;14.40;99.90
19646;DHT22;9971;52.446;13.452;2022-11-15T15:13:08;14.20;99.90
19646;DHT22;9971;52.446;13.452;2022-11-15T15:18:08;14.10;99.90
19646;DHT22;9971;52.446;13.452;2022-11-15T15:23:19;13.90;99.90
19646;DHT22;9971;52.446;13.452;2022-11-15T15:28:20;13.70;99.90
19646;DHT22;9971;52.446;13.452;2022-11-15T15:33:23;13.70;99.90
19646;DHT22;9971;52.446;13.452;2022-11-15T15:38:26;13.50;99.90
19646;DHT22;9971;52.446;13.452;2022-11-15T15:43:28;13.30;99.90
19646;DHT22;9971;52.446;13.452;2022-11-15T15:48:31;13.10;99.90
19646;DHT22;9971;52.446;13.452;2022-11-15T15:53:33;12.90;99.90
19646;DHT22;9971;52.446;13.452;2022-11-15T15:58:35;12.70;99.90
19646;DHT22;9971;52.446;13.452;2022-11-15T16:03:37;12.60;99.90
19646;DHT22;9971;52.446;13.452;2022-11-15T16:08:40;12.50;99.90
19646;DHT22;9971;52.446;13.452;2022-11-15T16:13:42;12.40;99.90
19646;DHT22;9971;52.446;13.452;2022-11-15T16:18:45;12.20;99.90
19646;DHT22;9971;52.446;13.452;2022-11-15T16:23:47;12.20;99.90
19646;DHT22;9971;52.446;13.452;2022-11-15T16:28:50;12.00;99.90
19646;DHT22;9971;52.446;13.452;2022-11-15T16:33:52;11.90;99.90
19646;DHT22;9971;52.446;13.452;2022-11-15T16:38:55;11.80;99.90
19646;DHT22;9971;52.446;13.452;2022-11-15T16:43:57;11.70;99.90
19646;DHT22;9971;52.446;13.452;2022-11-15T16:49:00;11.60;99.90
19646;DHT22;9971;52.446;13.452;2022-11-15T16:54:02;11.50;99.90
19646;DHT22;9971;52.446;13.452;2022-11-15T16:59:04;11.30;99.90
19646;DHT22;9971;52.446;13.452;2022-11-15T17:04:08;11.20;99.90
19646;DHT22;9971;52.446;13.452;2022-11-15T17:09:19;11.10;99.90
19646;DHT22;9971;52.446;13.452;2022-11-15T17:14:20;11.10;99.90
19646;DHT22;9971;52.446;13.452;2022-11-15T17:19:22;10.90;99.90
19646;DHT22;9971;52.446;13.452;2022-11-15T17:24:25;10.80;99.90
19646;DHT22;9971;52.446;13.452;2022-11-15T17:29:27;10.80;99.90
19646;DHT22;9971;52.446;13.452;2022-11-15T17:34:30;10.70;99.90
19646;DHT22;9971;52.446;13.452;2022-11-15T17:39:32;10.60;99.90
19646;DHT22;9971;52.446;13.452;2022-11-15T18:09:35;10.60;99.90
19646;DHT22;9971;52.446;13.452;2022-11-15T18:14:37;13.20;99.90
19646;DHT22;9971;52.446;13.452;2022-11-15T18:44:40;11.70;99.90
19646;DHT22;9971;52.446;13.452;2022-11-15T18:49:42;14.70;99.90
19646;DHT22;9971;52.446;13.452;2022-11-15T19:19:45;12.50;99.90
19646;DHT22;9971;52.446;13.452;2022-11-15T19:24:47;14.10;99.90
19646;DHT22;9971;52.446;13.452;2022-11-15T19:54:50;11.90;99.90
19646;DHT22;9971;52.446;13.452;2022-11-15T19:59:53;13.90;99.90
19646;DHT22;9971;52.446;13.452;2022-11-15T20:29:56;11.80;99.90
19646;DHT22;9971;52.446;13.452;2022-11-15T20:34:58;13.90;99.90
19646;DHT22;9971;52.446;13.452;2022-11-15T21:05:01;12.20;99.90
19646;DHT22;9971;52.446;13.452;2022-11-15T21:10:04;14.20;99.90
19646;DHT22;9971;52.446;13.452;2022-11-15T21:15:12;12.30;99.90
19646;DHT22;9971;52.446;13.452;2022-11-15T21:20:15;11.20;99.90
19646;DHT22;9971;52.446;13.452;2022-11-15T21:25:17;10.30;99.90
19646;DHT22;9971;52.446;13.452;2022-11-15T21:30:20;9.80;99.90
19646;DHT22;9971;52.446;13.452;2022-11-15T22:00:22;9.60;99.90
19646;DHT22;9971;52.446;13.452;2022-11-15T22:05:30;12.50;99.90
19646;DHT22;9971;52.446;13.452;2022-11-15T22:10:32;11.20;99.90
19646;DHT22;9971;52.446;13.452;2022-11-15T22:15:35;10.40;99.90
19646;DHT22;9971;52.446;13.452;2022-11-15T22:20:37;10.00;99.90
19646;DHT22;9971;52.446;13.452;2022-11-15T22:25:40;9.50;99.90
19646;DHT22;9971;52.446;13.452;2022-11-15T22:30:46;9.20;99.90
19646;DHT22;9971;52.446;13.452;2022-11-15T23:00:50;9.00;99.90
19646;DHT22;9971;52.446;13.452;2022-11-15T23:05:52;12.00;99.90
19646;DHT22;9971;52.446;13.452;2022-11-15T23:10:54;10.80;99.90
19646;DHT22;9971;52.446;13.452;2022-11-15T23:16:14;10.10;99.90
19646;DHT22;9971;52.446;13.452;2022-11-15T23:21:24;9.50;99.90
19646;DHT22;9971;52.446;13.452;2022-11-15T23:26:30;9.10;99.90
19646;DHT22;9971;52.446;13.452;2022-11-15T23:56:32;8.90;99.90
